sensor_id;sensor_type;location;lat;lon;timestamp;P1;durP1;ratioP1;P2;durP2;ratioP2
5555;SDS011;2801;50.972;7.856;2022-10-17T00:00:56;14.38;;;5.45;;
5555;SDS011;2801;50.972;7.856;2022-10-17T00:03:23;15.18;;;5.93;;
5555;SDS011;2801;50.972;7.856;2022-10-17T00:05:49;14.80;;;6.13;;
5555;SDS011;2801;50.972;7.856;2022-10-17T00:08:17;10.95;;;5.40;;
5555;SDS011;2801;50.972;7.856;2022-10-17T00:10:44;12.18;;;5.22;;
5555;SDS011;2801;50.972;7.856;2022-10-17T00:13:19;10.35;;;4.82;;
5555;SDS011;2801;50.972;7.856;2022-10-17T00:15:46;11.45;;;5.30;;
5555;SDS011;2801;50.972;7.856;2022-10-17T00:18:13;11.02;;;5.63;;
5555;SDS011;2801;50.972;7.856;2022-10-17T00:20:40;12.43;;;5.60;;
5555;SDS011;2801;50.972;7.856;2022-10-17T00:23:06;13.75;;;6.00;;
5555;SDS011;2801;50.972;7.856;2022-10-17T00:25:33;11.75;;;5.38;;
5555;SDS011;2801;50.972;7.856;2022-10-17T00:28:00;10.25;;;5.00;;
5555;SDS011;2801;50.972;7.856;2022-10-17T00:30:27;15.23;;;5.50;;
5555;SDS011;2801;50.972;7.856;2022-10-17T00:32:54;9.52;;;4.90;;
5555;SDS011;2801;50.972;7.856;2022-10-17T00:35:21;10.25;;;4.82;;
5555;SDS011;2801;50.972;7.856;2022-10-17T00:37:47;13.13;;;4.85;;
5555;SDS011;2801;50.972;7.856;2022-10-17T00:40:14;9.88;;;4.72;;
5555;SDS011;2801;50.972;7.856;2022-10-17T00:42:41;9.25;;;5.53;;
5555;SDS011;2801;50.972;7.856;2022-10-17T00:48:04;10.95;;;5.30;;
5555;SDS011;2801;50.972;7.856;2022-10-17T00:50:36;14.73;;;5.55;;
5555;SDS011;2801;50.972;7.856;2022-10-17T00:53:07;15.43;;;5.72;;
5555;SDS011;2801;50.972;7.856;2022-10-17T00:55:37;10.60;;;5.60;;
5555;SDS011;2801;50.972;7.856;2022-10-17T00:58:12;19.67;;;6.10;;
5555;SDS011;2801;50.972;7.856;2022-10-17T01:00:39;11.20;;;6.03;;
5555;SDS011;2801;50.972;7.856;2022-10-17T01:03:08;12.30;;;5.97;;
5555;SDS011;2801;50.972;7.856;2022-10-17T01:05:34;14.73;;;6.15;;
5555;SDS011;2801;50.972;7.856;2022-10-17T01:08:03;12.85;;;5.55;;
5555;SDS011;2801;50.972;7.856;2022-10-17T01:10:32;10.90;;;6.00;;
5555;SDS011;2801;50.972;7.856;2022-10-17T01:13:18;12.10;;;5.50;;
5555;SDS011;2801;50.972;7.856;2022-10-17T01:21:53;10.70;;;5.35;;
5555;SDS011;2801;50.972;7.856;2022-10-17T01:24:32;10.70;;;5.15;;
5555;SDS011;2801;50.972;7.856;2022-10-17T01:30:48;10.77;;;5.55;;
5555;SDS011;2801;50.972;7.856;2022-10-17T01:33:21;13.65;;;5.93;;
5555;SDS011;2801;50.972;7.856;2022-10-17T01:36:10;12.50;;;5.68;;
5555;SDS011;2801;50.972;7.856;2022-10-17T01:39:28;11.52;;;5.40;;
5555;SDS011;2801;50.972;7.856;2022-10-17T01:44:59;12.95;;;6.05;;
5555;SDS011;2801;50.972;7.856;2022-10-17T01:47:48;15.23;;;5.95;;
5555;SDS011;2801;50.972;7.856;2022-10-17T01:50:28;19.58;;;6.63;;
5555;SDS011;2801;50.972;7.856;2022-10-17T01:53:06;13.25;;;5.95;;
5555;SDS011;2801;50.972;7.856;2022-10-17T01:55:40;14.48;;;6.07;;
5555;SDS011;2801;50.972;7.856;2022-10-17T01:58:15;13.40;;;6.38;;
5555;SDS011;2801;50.972;7.856;2022-10-17T02:00:55;17.48;;;5.85;;
5555;SDS011;2801;50.972;7.856;2022-10-17T02:03:28;15.60;;;5.90;;
5555;SDS011;2801;50.972;7.856;2022-10-17T02:05:57;12.50;;;5.43;;
5555;SDS011;2801;50.972;7.856;2022-10-17T02:08:24;10.43;;;5.13;;
5555;SDS011;2801;50.972;7.856;2022-10-17T02:11:17;15.02;;;4.80;;
5555;SDS011;2801;50.972;7.856;2022-10-17T02:17:05;11.75;;;4.70;;
5555;SDS011;2801;50.972;7.856;2022-10-17T02:19:49;10.82;;;4.80;;
5555;SDS011;2801;50.972;7.856;2022-10-17T02:22:29;11.20;;;4.32;;
5555;SDS011;2801;50.972;7.856;2022-10-17T02:25:49;12.50;;;4.80;;
5555;SDS011;2801;50.972;7.856;2022-10-17T02:28:20;10.55;;;4.80;;
5555;SDS011;2801;50.972;7.856;2022-10-17T02:31:15;11.43;;;5.47;;
5555;SDS011;2801;50.972;7.856;2022-10-17T02:33:55;17.27;;;5.40;;
5555;SDS011;2801;50.972;7.856;2022-10-17T02:36:32;13.10;;;4.70;;
5555;SDS011;2801;50.972;7.856;2022-10-17T02:39:06;10.27;;;4.75;;
5555;SDS011;2801;50.972;7.856;2022-10-17T02:41:36;12.90;;;5.00;;
5555;SDS011;2801;50.972;7.856;2022-10-17T02:44:06;10.88;;;5.13;;
5555;SDS011;2801;50.972;7.856;2022-10-17T02:46:35;12.75;;;5.30;;
5555;SDS011;2801;50.972;7.856;2022-10-17T02:49:07;16.42;;;6.32;;
5555;SDS011;2801;50.972;7.856;2022-10-17T02:54:51;15.07;;;5.80;;
5555;SDS011;2801;50.972;7.856;2022-10-17T02:57:38;13.38;;;5.85;;
5555;SDS011;2801;50.972;7.856;2022-10-17T03:00:11;13.00;;;5.85;;
5555;SDS011;2801;50.972;7.856;2022-10-17T03:02:41;13.23;;;5.55;;
5555;SDS011;2801;50.972;7.856;2022-10-17T03:05:12;15.60;;;5.85;;
5555;SDS011;2801;50.972;7.856;2022-10-17T03:07:52;17.75;;;5.65;;
5555;SDS011;2801;50.972;7.856;2022-10-17T03:10:21;15.82;;;5.82;;
5555;SDS011;2801;50.972;7.856;2022-10-17T03:12:47;19.52;;;5.68;;
5555;SDS011;2801;50.972;7.856;2022-10-17T03:15:14;10.73;;;5.38;;
5555;SDS011;2801;50.972;7.856;2022-10-17T03:17:41;13.13;;;5.47;;
5555;SDS011;2801;50.972;7.856;2022-10-17T03:20:08;14.55;;;5.55;;
5555;SDS011;2801;50.972;7.856;2022-10-17T03:22:36;12.18;;;5.85;;
5555;SDS011;2801;50.972;7.856;2022-10-17T03:25:03;12.05;;;5.43;;
5555;SDS011;2801;50.972;7.856;2022-10-17T03:27:30;13.82;;;5.82;;
5555;SDS011;2801;50.972;7.856;2022-10-17T03:29:57;12.00;;;5.32;;
5555;SDS011;2801;50.972;7.856;2022-10-17T03:32:24;11.15;;;5.97;;
5555;SDS011;2801;50.972;7.856;2022-10-17T03:34:51;14.25;;;5.45;;
5555;SDS011;2801;50.972;7.856;2022-10-17T03:37:17;13.90;;;5.85;;
5555;SDS011;2801;50.972;7.856;2022-10-17T03:39:44;9.95;;;5.20;;
5555;SDS011;2801;50.972;7.856;2022-10-17T03:42:11;8.20;;;4.88;;
5555;SDS011;2801;50.972;7.856;2022-10-17T03:44:37;13.45;;;5.65;;
5555;SDS011;2801;50.972;7.856;2022-10-17T03:47:04;7.68;;;4.68;;
5555;SDS011;2801;50.972;7.856;2022-10-17T03:49:37;11.07;;;5.22;;
5555;SDS011;2801;50.972;7.856;2022-10-17T03:52:03;12.75;;;5.25;;
5555;SDS011;2801;50.972;7.856;2022-10-17T03:54:30;11.85;;;5.80;;
5555;SDS011;2801;50.972;7.856;2022-10-17T03:56:57;11.65;;;5.28;;
5555;SDS011;2801;50.972;7.856;2022-10-17T03:59:24;9.00;;;5.03;;
5555;SDS011;2801;50.972;7.856;2022-10-17T04:01:50;11.52;;;5.63;;
5555;SDS011;2801;50.972;7.856;2022-10-17T04:04:17;7.70;;;4.65;;
5555;SDS011;2801;50.972;7.856;2022-10-17T04:06:44;12.10;;;6.00;;
5555;SDS011;2801;50.972;7.856;2022-10-17T04:09:11;8.43;;;4.75;;
5555;SDS011;2801;50.972;7.856;2022-10-17T04:11:37;12.43;;;5.63;;
5555;SDS011;2801;50.972;7.856;2022-10-17T04:14:04;13.93;;;5.80;;
5555;SDS011;2801;50.972;7.856;2022-10-17T04:16:31;9.65;;;5.30;;
5555;SDS011;2801;50.972;7.856;2022-10-17T04:18:58;10.20;;;5.45;;
5555;SDS011;2801;50.972;7.856;2022-10-17T04:21:26;11.98;;;5.43;;
5555;SDS011;2801;50.972;7.856;2022-10-17T04:23:58;13.88;;;5.40;;
5555;SDS011;2801;50.972;7.856;2022-10-17T04:26:26;11.23;;;5.43;;
5555;SDS011;2801;50.972;7.856;2022-10-17T04:28:52;12.35;;;5.50;;
5555;SDS011;2801;50.972;7.856;2022-10-17T04:31:19;11.80;;;5.38;;
5555;SDS011;2801;50.972;7.856;2022-10-17T04:33:47;10.85;;;5.70;;
5555;SDS011;2801;50.972;7.856;2022-10-17T04:36:16;12.32;;;5.75;;
5555;SDS011;2801;50.972;7.856;2022-10-17T04:38:45;10.07;;;5.60;;
5555;SDS011;2801;50.972;7.856;2022-10-17T04:41:13;11.93;;;5.47;;
5555;SDS011;2801;50.972;7.856;2022-10-17T04:43:43;12.30;;;5.57;;
5555;SDS011;2801;50.972;7.856;2022-10-17T04:46:16;13.93;;;5.47;;
5555;SDS011;2801;50.972;7.856;2022-10-17T04:48:43;8.85;;;5.10;;
5555;SDS011;2801;50.972;7.856;2022-10-17T04:51:11;10.80;;;5.40;;
5555;SDS011;2801;50.972;7.856;2022-10-17T04:53:40;11.10;;;5.40;;
5555;SDS011;2801;50.972;7.856;2022-10-17T04:56:13;11.02;;;5.85;;
5555;SDS011;2801;50.972;7.856;2022-10-17T04:58:43;14.48;;;5.63;;
5555;SDS011;2801;50.972;7.856;2022-10-17T05:01:15;10.98;;;6.35;;
5555;SDS011;2801;50.972;7.856;2022-10-17T05:03:45;9.07;;;5.30;;
5555;SDS011;2801;50.972;7.856;2022-10-17T05:06:17;11.05;;;6.07;;
5555;SDS011;2801;50.972;7.856;2022-10-17T05:08:46;12.77;;;5.70;;
5555;SDS011;2801;50.972;7.856;2022-10-17T05:11:23;13.38;;;6.60;;
5555;SDS011;2801;50.972;7.856;2022-10-17T05:13:57;15.02;;;6.68;;
5555;SDS011;2801;50.972;7.856;2022-10-17T05:16:26;11.38;;;6.28;;
5555;SDS011;2801;50.972;7.856;2022-10-17T05:18:54;16.27;;;6.55;;
5555;SDS011;2801;50.972;7.856;2022-10-17T05:21:24;12.80;;;6.30;;
5555;SDS011;2801;50.972;7.856;2022-10-17T05:23:52;14.52;;;6.85;;
5555;SDS011;2801;50.972;7.856;2022-10-17T05:26:20;13.20;;;7.03;;
5555;SDS011;2801;50.972;7.856;2022-10-17T05:28:48;16.13;;;6.80;;
5555;SDS011;2801;50.972;7.856;2022-10-17T05:31:17;15.77;;;6.30;;
5555;SDS011;2801;50.972;7.856;2022-10-17T05:33:44;15.98;;;6.40;;
5555;SDS011;2801;50.972;7.856;2022-10-17T05:36:11;14.18;;;6.53;;
5555;SDS011;2801;50.972;7.856;2022-10-17T05:38:38;13.98;;;6.30;;
5555;SDS011;2801;50.972;7.856;2022-10-17T05:41:05;14.55;;;6.43;;
5555;SDS011;2801;50.972;7.856;2022-10-17T05:43:32;13.10;;;5.82;;
5555;SDS011;2801;50.972;7.856;2022-10-17T05:46:03;12.13;;;6.38;;
5555;SDS011;2801;50.972;7.856;2022-10-17T05:48:31;11.93;;;5.88;;
5555;SDS011;2801;50.972;7.856;2022-10-17T05:51:03;17.52;;;6.70;;
5555;SDS011;2801;50.972;7.856;2022-10-17T05:53:35;12.23;;;6.00;;
5555;SDS011;2801;50.972;7.856;2022-10-17T05:56:05;18.70;;;7.30;;
5555;SDS011;2801;50.972;7.856;2022-10-17T05:58:35;14.20;;;7.07;;
5555;SDS011;2801;50.972;7.856;2022-10-17T06:01:25;12.15;;;6.60;;
5555;SDS011;2801;50.972;7.856;2022-10-17T06:03:53;9.95;;;5.72;;
5555;SDS011;2801;50.972;7.856;2022-10-17T06:06:19;11.43;;;6.13;;
5555;SDS011;2801;50.972;7.856;2022-10-17T06:08:46;12.65;;;5.85;;
5555;SDS011;2801;50.972;7.856;2022-10-17T06:11:13;11.75;;;6.07;;
5555;SDS011;2801;50.972;7.856;2022-10-17T06:13:40;10.15;;;5.90;;
5555;SDS011;2801;50.972;7.856;2022-10-17T06:16:07;9.68;;;5.43;;
5555;SDS011;2801;50.972;7.856;2022-10-17T06:18:34;11.30;;;5.18;;
5555;SDS011;2801;50.972;7.856;2022-10-17T06:21:01;10.57;;;5.97;;
5555;SDS011;2801;50.972;7.856;2022-10-17T06:23:30;14.52;;;6.38;;
5555;SDS011;2801;50.972;7.856;2022-10-17T06:26:01;12.07;;;5.75;;
5555;SDS011;2801;50.972;7.856;2022-10-17T06:28:31;12.05;;;6.47;;
5555;SDS011;2801;50.972;7.856;2022-10-17T06:30:58;13.63;;;6.60;;
5555;SDS011;2801;50.972;7.856;2022-10-17T06:33:37;12.93;;;6.57;;
5555;SDS011;2801;50.972;7.856;2022-10-17T06:36:05;12.68;;;7.38;;
5555;SDS011;2801;50.972;7.856;2022-10-17T06:38:33;13.02;;;7.30;;
5555;SDS011;2801;50.972;7.856;2022-10-17T06:41:02;18.52;;;7.43;;
5555;SDS011;2801;50.972;7.856;2022-10-17T06:43:34;17.77;;;7.10;;
5555;SDS011;2801;50.972;7.856;2022-10-17T06:46:03;17.80;;;7.93;;
5555;SDS011;2801;50.972;7.856;2022-10-17T06:48:30;12.82;;;7.13;;
5555;SDS011;2801;50.972;7.856;2022-10-17T06:51:01;11.68;;;7.25;;
5555;SDS011;2801;50.972;7.856;2022-10-17T06:53:31;12.65;;;7.20;;
5555;SDS011;2801;50.972;7.856;2022-10-17T06:56:00;15.70;;;7.30;;
5555;SDS011;2801;50.972;7.856;2022-10-17T06:58:30;11.00;;;5.90;;
5555;SDS011;2801;50.972;7.856;2022-10-17T07:03:28;9.82;;;6.10;;
5555;SDS011;2801;50.972;7.856;2022-10-17T07:05:56;11.85;;;6.35;;
5555;SDS011;2801;50.972;7.856;2022-10-17T07:08:23;11.45;;;5.93;;
5555;SDS011;2801;50.972;7.856;2022-10-17T07:10:51;12.93;;;6.20;;
5555;SDS011;2801;50.972;7.856;2022-10-17T07:13:18;17.30;;;6.78;;
5555;SDS011;2801;50.972;7.856;2022-10-17T07:15:45;15.02;;;6.30;;
5555;SDS011;2801;50.972;7.856;2022-10-17T07:18:13;11.55;;;5.65;;
5555;SDS011;2801;50.972;7.856;2022-10-17T07:20:40;10.95;;;5.93;;
5555;SDS011;2801;50.972;7.856;2022-10-17T07:23:06;8.35;;;5.38;;
5555;SDS011;2801;50.972;7.856;2022-10-17T07:25:33;9.40;;;5.38;;
5555;SDS011;2801;50.972;7.856;2022-10-17T07:28:05;9.80;;;5.35;;
5555;SDS011;2801;50.972;7.856;2022-10-17T07:30:32;8.68;;;5.63;;
5555;SDS011;2801;50.972;7.856;2022-10-17T07:32:58;9.45;;;5.57;;
5555;SDS011;2801;50.972;7.856;2022-10-17T07:35:25;7.85;;;5.10;;
5555;SDS011;2801;50.972;7.856;2022-10-17T07:37:52;9.98;;;5.25;;
5555;SDS011;2801;50.972;7.856;2022-10-17T07:40:19;9.50;;;4.95;;
5555;SDS011;2801;50.972;7.856;2022-10-17T07:42:45;7.38;;;5.00;;
5555;SDS011;2801;50.972;7.856;2022-10-17T07:45:12;8.48;;;4.57;;
5555;SDS011;2801;50.972;7.856;2022-10-17T07:47:40;7.78;;;4.15;;
5555;SDS011;2801;50.972;7.856;2022-10-17T07:50:07;6.78;;;4.78;;
5555;SDS011;2801;50.972;7.856;2022-10-17T07:52:35;9.05;;;4.03;;
5555;SDS011;2801;50.972;7.856;2022-10-17T07:55:01;7.85;;;4.60;;
5555;SDS011;2801;50.972;7.856;2022-10-17T07:57:29;5.15;;;4.07;;
5555;SDS011;2801;50.972;7.856;2022-10-17T07:59:55;6.85;;;4.35;;
5555;SDS011;2801;50.972;7.856;2022-10-17T08:02:23;6.43;;;4.20;;
5555;SDS011;2801;50.972;7.856;2022-10-17T08:04:52;5.45;;;4.10;;
5555;SDS011;2801;50.972;7.856;2022-10-17T08:07:19;6.72;;;3.85;;
5555;SDS011;2801;50.972;7.856;2022-10-17T08:09:54;6.03;;;3.42;;
5555;SDS011;2801;50.972;7.856;2022-10-17T08:12:21;10.82;;;4.30;;
5555;SDS011;2801;50.972;7.856;2022-10-17T08:14:49;4.78;;;3.67;;
5555;SDS011;2801;50.972;7.856;2022-10-17T08:17:16;7.72;;;4.03;;
5555;SDS011;2801;50.972;7.856;2022-10-17T08:19:42;7.35;;;5.05;;
5555;SDS011;2801;50.972;7.856;2022-10-17T08:22:09;5.97;;;4.03;;
5555;SDS011;2801;50.972;7.856;2022-10-17T08:24:36;5.53;;;3.50;;
5555;SDS011;2801;50.972;7.856;2022-10-17T08:27:03;7.43;;;3.55;;
5555;SDS011;2801;50.972;7.856;2022-10-17T08:29:36;4.85;;;3.10;;
5555;SDS011;2801;50.972;7.856;2022-10-17T08:32:04;10.60;;;4.30;;
5555;SDS011;2801;50.972;7.856;2022-10-17T08:34:34;5.68;;;3.75;;
5555;SDS011;2801;50.972;7.856;2022-10-17T08:37:01;4.82;;;3.80;;
5555;SDS011;2801;50.972;7.856;2022-10-17T08:39:29;4.70;;;3.45;;
5555;SDS011;2801;50.972;7.856;2022-10-17T08:47:09;5.90;;;2.97;;
5555;SDS011;2801;50.972;7.856;2022-10-17T08:49:42;4.13;;;3.08;;
5555;SDS011;2801;50.972;7.856;2022-10-17T08:55:15;7.32;;;3.40;;
5555;SDS011;2801;50.972;7.856;2022-10-17T08:57:52;6.00;;;3.10;;
5555;SDS011;2801;50.972;7.856;2022-10-17T09:00:20;4.78;;;3.03;;
5555;SDS011;2801;50.972;7.856;2022-10-17T09:05:45;6.22;;;3.65;;
5555;SDS011;2801;50.972;7.856;2022-10-17T09:08:29;5.13;;;3.00;;
5555;SDS011;2801;50.972;7.856;2022-10-17T09:17:57;6.50;;;3.13;;
5555;SDS011;2801;50.972;7.856;2022-10-17T09:20:55;7.25;;;3.63;;
5555;SDS011;2801;50.972;7.856;2022-10-17T09:23:52;6.40;;;3.25;;
5555;SDS011;2801;50.972;7.856;2022-10-17T09:26:35;5.40;;;3.08;;
5555;SDS011;2801;50.972;7.856;2022-10-17T09:29:09;5.60;;;3.08;;
5555;SDS011;2801;50.972;7.856;2022-10-17T09:31:56;7.22;;;3.17;;
5555;SDS011;2801;50.972;7.856;2022-10-17T09:34:51;6.55;;;3.42;;
5555;SDS011;2801;50.972;7.856;2022-10-17T09:37:19;7.95;;;3.13;;
5555;SDS011;2801;50.972;7.856;2022-10-17T09:39:57;6.82;;;3.22;;
5555;SDS011;2801;50.972;7.856;2022-10-17T09:42:25;5.65;;;3.30;;
5555;SDS011;2801;50.972;7.856;2022-10-17T09:44:55;4.90;;;2.97;;
5555;SDS011;2801;50.972;7.856;2022-10-17T09:50:31;6.47;;;3.40;;
5555;SDS011;2801;50.972;7.856;2022-10-17T09:53:21;5.78;;;3.30;;
5555;SDS011;2801;50.972;7.856;2022-10-17T09:55:53;5.60;;;3.10;;
5555;SDS011;2801;50.972;7.856;2022-10-17T09:58:38;5.22;;;3.17;;
5555;SDS011;2801;50.972;7.856;2022-10-17T10:01:29;4.45;;;2.97;;
5555;SDS011;2801;50.972;7.856;2022-10-17T10:04:10;10.77;;;3.40;;
5555;SDS011;2801;50.972;7.856;2022-10-17T10:07:04;5.55;;;3.42;;
5555;SDS011;2801;50.972;7.856;2022-10-17T10:09:37;5.88;;;3.45;;
5555;SDS011;2801;50.972;7.856;2022-10-17T10:12:13;7.28;;;2.95;;
5555;SDS011;2801;50.972;7.856;2022-10-17T10:14:45;7.47;;;3.22;;
5555;SDS011;2801;50.972;7.856;2022-10-17T10:17:29;5.85;;;3.00;;
5555;SDS011;2801;50.972;7.856;2022-10-17T10:20:05;6.38;;;3.47;;
5555;SDS011;2801;50.972;7.856;2022-10-17T10:25:54;4.63;;;3.10;;
5555;SDS011;2801;50.972;7.856;2022-10-17T10:28:25;5.07;;;3.17;;
5555;SDS011;2801;50.972;7.856;2022-10-17T10:30:59;9.02;;;3.58;;
5555;SDS011;2801;50.972;7.856;2022-10-17T10:33:32;5.20;;;2.90;;
5555;SDS011;2801;50.972;7.856;2022-10-17T10:36:07;4.22;;;2.83;;
5555;SDS011;2801;50.972;7.856;2022-10-17T10:38:34;4.55;;;2.97;;
5555;SDS011;2801;50.972;7.856;2022-10-17T10:41:08;4.18;;;2.80;;
5555;SDS011;2801;50.972;7.856;2022-10-17T10:43:44;5.32;;;3.03;;
5555;SDS011;2801;50.972;7.856;2022-10-17T10:46:39;6.88;;;3.15;;
5555;SDS011;2801;50.972;7.856;2022-10-17T10:49:02;6.00;;;3.40;;
5555;SDS011;2801;50.972;7.856;2022-10-17T10:51:34;5.45;;;3.00;;
5555;SDS011;2801;50.972;7.856;2022-10-17T10:54:11;6.22;;;3.65;;
5555;SDS011;2801;50.972;7.856;2022-10-17T10:56:55;10.70;;;3.15;;
5555;SDS011;2801;50.972;7.856;2022-10-17T11:02:23;5.38;;;3.08;;
5555;SDS011;2801;50.972;7.856;2022-10-17T11:10:58;5.78;;;2.90;;
5555;SDS011;2801;50.972;7.856;2022-10-17T11:14:07;5.63;;;3.15;;
5555;SDS011;2801;50.972;7.856;2022-10-17T11:19:55;4.40;;;2.80;;
5555;SDS011;2801;50.972;7.856;2022-10-17T11:22:55;5.88;;;3.05;;
5555;SDS011;2801;50.972;7.856;2022-10-17T11:25:36;4.53;;;3.00;;
5555;SDS011;2801;50.972;7.856;2022-10-17T11:28:13;7.55;;;3.22;;
5555;SDS011;2801;50.972;7.856;2022-10-17T11:36:13;5.15;;;3.05;;
5555;SDS011;2801;50.972;7.856;2022-10-17T11:38:47;5.97;;;2.67;;
5555;SDS011;2801;50.972;7.856;2022-10-17T11:41:26;4.05;;;2.80;;
5555;SDS011;2801;50.972;7.856;2022-10-17T11:46:44;3.35;;;2.90;;
5555;SDS011;2801;50.972;7.856;2022-10-17T11:49:30;4.47;;;2.80;;
5555;SDS011;2801;50.972;7.856;2022-10-17T11:55:21;5.55;;;2.85;;
5555;SDS011;2801;50.972;7.856;2022-10-17T12:00:40;5.10;;;3.00;;
5555;SDS011;2801;50.972;7.856;2022-10-17T12:03:24;4.68;;;2.95;;
5555;SDS011;2801;50.972;7.856;2022-10-17T12:12:22;5.82;;;3.00;;
5555;SDS011;2801;50.972;7.856;2022-10-17T12:14:53;4.68;;;2.78;;
5555;SDS011;2801;50.972;7.856;2022-10-17T12:20:30;5.78;;;3.10;;
5555;SDS011;2801;50.972;7.856;2022-10-17T12:25:47;4.85;;;3.10;;
5555;SDS011;2801;50.972;7.856;2022-10-17T12:28:51;6.18;;;3.20;;
5555;SDS011;2801;50.972;7.856;2022-10-17T12:33:50;9.70;;;3.30;;
5555;SDS011;2801;50.972;7.856;2022-10-17T12:49:36;7.78;;;2.60;;
5555;SDS011;2801;50.972;7.856;2022-10-17T12:52:17;5.25;;;3.03;;
5555;SDS011;2801;50.972;7.856;2022-10-17T12:54:57;6.55;;;3.00;;
5555;SDS011;2801;50.972;7.856;2022-10-17T12:58:00;5.55;;;2.95;;
5555;SDS011;2801;50.972;7.856;2022-10-17T13:03:43;7.97;;;2.95;;
5555;SDS011;2801;50.972;7.856;2022-10-17T13:06:15;5.55;;;3.00;;
5555;SDS011;2801;50.972;7.856;2022-10-17T13:08:49;7.13;;;3.22;;
5555;SDS011;2801;50.972;7.856;2022-10-17T13:11:31;3.97;;;2.72;;
5555;SDS011;2801;50.972;7.856;2022-10-17T13:14:02;8.65;;;3.00;;
5555;SDS011;2801;50.972;7.856;2022-10-17T13:16:42;6.60;;;3.10;;
5555;SDS011;2801;50.972;7.856;2022-10-17T13:19:17;7.45;;;3.00;;
5555;SDS011;2801;50.972;7.856;2022-10-17T13:21:58;5.60;;;3.15;;
5555;SDS011;2801;50.972;7.856;2022-10-17T13:27:02;4.07;;;3.05;;
5555;SDS011;2801;50.972;7.856;2022-10-17T13:29:31;6.03;;;3.10;;
5555;SDS011;2801;50.972;7.856;2022-10-17T13:31:59;3.97;;;2.50;;
5555;SDS011;2801;50.972;7.856;2022-10-17T13:34:29;4.70;;;2.95;;
5555;SDS011;2801;50.972;7.856;2022-10-17T13:37:00;5.38;;;2.92;;
5555;SDS011;2801;50.972;7.856;2022-10-17T13:39:35;6.38;;;3.10;;
5555;SDS011;2801;50.972;7.856;2022-10-17T13:42:30;5.32;;;3.08;;
5555;SDS011;2801;50.972;7.856;2022-10-17T13:45:09;5.25;;;2.63;;
5555;SDS011;2801;50.972;7.856;2022-10-17T13:47:59;4.95;;;3.20;;
5555;SDS011;2801;50.972;7.856;2022-10-17T13:53:23;3.88;;;3.00;;
5555;SDS011;2801;50.972;7.856;2022-10-17T13:58:59;8.43;;;3.38;;
5555;SDS011;2801;50.972;7.856;2022-10-17T14:01:48;7.88;;;3.42;;
5555;SDS011;2801;50.972;7.856;2022-10-17T14:04:17;8.90;;;3.40;;
5555;SDS011;2801;50.972;7.856;2022-10-17T14:06:45;5.38;;;3.00;;
5555;SDS011;2801;50.972;7.856;2022-10-17T14:09:28;5.05;;;3.30;;
5555;SDS011;2801;50.972;7.856;2022-10-17T14:12:01;6.15;;;3.53;;
5555;SDS011;2801;50.972;7.856;2022-10-17T14:14:38;7.05;;;3.45;;
5555;SDS011;2801;50.972;7.856;2022-10-17T14:17:33;6.32;;;3.40;;
5555;SDS011;2801;50.972;7.856;2022-10-17T14:20:02;10.55;;;4.03;;
5555;SDS011;2801;50.972;7.856;2022-10-17T14:22:51;5.75;;;2.95;;
5555;SDS011;2801;50.972;7.856;2022-10-17T14:25:38;6.32;;;3.10;;
5555;SDS011;2801;50.972;7.856;2022-10-17T14:30:35;10.18;;;3.03;;
5555;SDS011;2801;50.972;7.856;2022-10-17T14:33:28;5.90;;;3.38;;
5555;SDS011;2801;50.972;7.856;2022-10-17T14:36:00;8.73;;;3.50;;
5555;SDS011;2801;50.972;7.856;2022-10-17T14:38:29;6.43;;;3.25;;
5555;SDS011;2801;50.972;7.856;2022-10-17T14:41:13;11.07;;;3.47;;
5555;SDS011;2801;50.972;7.856;2022-10-17T14:44:14;6.50;;;3.20;;
5555;SDS011;2801;50.972;7.856;2022-10-17T14:47:03;5.85;;;3.33;;
5555;SDS011;2801;50.972;7.856;2022-10-17T14:55:54;7.45;;;3.55;;
5555;SDS011;2801;50.972;7.856;2022-10-17T14:58:28;7.03;;;3.45;;
5555;SDS011;2801;50.972;7.856;2022-10-17T15:00:58;6.40;;;3.47;;
5555;SDS011;2801;50.972;7.856;2022-10-17T15:03:27;6.05;;;3.38;;
5555;SDS011;2801;50.972;7.856;2022-10-17T15:05:54;9.10;;;3.70;;
5555;SDS011;2801;50.972;7.856;2022-10-17T15:08:21;5.82;;;3.30;;
5555;SDS011;2801;50.972;7.856;2022-10-17T15:10:49;9.90;;;3.40;;
5555;SDS011;2801;50.972;7.856;2022-10-17T15:13:16;5.75;;;3.17;;
5555;SDS011;2801;50.972;7.856;2022-10-17T15:16:20;8.73;;;3.63;;
5555;SDS011;2801;50.972;7.856;2022-10-17T15:18:56;7.40;;;3.92;;
5555;SDS011;2801;50.972;7.856;2022-10-17T15:21:23;7.13;;;3.30;;
5555;SDS011;2801;50.972;7.856;2022-10-17T15:24:07;9.57;;;7.07;;
5555;SDS011;2801;50.972;7.856;2022-10-17T15:26:33;6.70;;;4.05;;
5555;SDS011;2801;50.972;7.856;2022-10-17T15:29:00;7.38;;;4.93;;
5555;SDS011;2801;50.972;7.856;2022-10-17T15:31:28;7.95;;;5.10;;
5555;SDS011;2801;50.972;7.856;2022-10-17T15:33:58;9.90;;;5.38;;
5555;SDS011;2801;50.972;7.856;2022-10-17T15:36:26;12.90;;;6.05;;
5555;SDS011;2801;50.972;7.856;2022-10-17T15:39:00;11.38;;;5.07;;
5555;SDS011;2801;50.972;7.856;2022-10-17T15:41:29;12.13;;;3.97;;
5555;SDS011;2801;50.972;7.856;2022-10-17T15:43:57;8.13;;;3.67;;
5555;SDS011;2801;50.972;7.856;2022-10-17T15:46:26;12.25;;;3.75;;
5555;SDS011;2801;50.972;7.856;2022-10-17T15:49:00;12.85;;;4.00;;
5555;SDS011;2801;50.972;7.856;2022-10-17T15:51:32;7.88;;;3.35;;
5555;SDS011;2801;50.972;7.856;2022-10-17T15:53:59;9.82;;;3.85;;
5555;SDS011;2801;50.972;7.856;2022-10-17T15:58:57;7.82;;;3.72;;
5555;SDS011;2801;50.972;7.856;2022-10-17T16:01:27;16.33;;;5.40;;
5555;SDS011;2801;50.972;7.856;2022-10-17T16:03:56;6.47;;;3.78;;
5555;SDS011;2801;50.972;7.856;2022-10-17T16:06:24;6.78;;;4.35;;
5555;SDS011;2801;50.972;7.856;2022-10-17T16:08:52;9.57;;;3.53;;
5555;SDS011;2801;50.972;7.856;2022-10-17T16:11:35;7.88;;;3.47;;
5555;SDS011;2801;50.972;7.856;2022-10-17T16:14:06;10.23;;;3.65;;
5555;SDS011;2801;50.972;7.856;2022-10-17T16:16:41;4.75;;;3.20;;
5555;SDS011;2801;50.972;7.856;2022-10-17T16:19:10;9.13;;;3.10;;
5555;SDS011;2801;50.972;7.856;2022-10-17T16:21:38;10.75;;;3.10;;
5555;SDS011;2801;50.972;7.856;2022-10-17T16:24:08;6.88;;;3.33;;
5555;SDS011;2801;50.972;7.856;2022-10-17T16:26:40;7.05;;;2.88;;
5555;SDS011;2801;50.972;7.856;2022-10-17T16:29:06;7.38;;;2.90;;
5555;SDS011;2801;50.972;7.856;2022-10-17T16:31:35;6.38;;;2.70;;
5555;SDS011;2801;50.972;7.856;2022-10-17T16:34:07;9.23;;;3.65;;
5555;SDS011;2801;50.972;7.856;2022-10-17T16:36:38;8.30;;;4.72;;
5555;SDS011;2801;50.972;7.856;2022-10-17T16:39:06;8.40;;;4.60;;
5555;SDS011;2801;50.972;7.856;2022-10-17T16:41:37;11.82;;;3.35;;
5555;SDS011;2801;50.972;7.856;2022-10-17T16:44:09;9.32;;;4.20;;
5555;SDS011;2801;50.972;7.856;2022-10-17T16:46:41;9.60;;;3.67;;
5555;SDS011;2801;50.972;7.856;2022-10-17T16:49:08;7.15;;;2.50;;
5555;SDS011;2801;50.972;7.856;2022-10-17T16:51:35;7.03;;;2.95;;
5555;SDS011;2801;50.972;7.856;2022-10-17T16:54:02;7.63;;;2.70;;
5555;SDS011;2801;50.972;7.856;2022-10-17T16:56:29;8.18;;;3.15;;
5555;SDS011;2801;50.972;7.856;2022-10-17T16:58:58;11.75;;;3.13;;
5555;SDS011;2801;50.972;7.856;2022-10-17T17:01:26;13.63;;;2.97;;
5555;SDS011;2801;50.972;7.856;2022-10-17T17:03:56;7.72;;;3.10;;
5555;SDS011;2801;50.972;7.856;2022-10-17T17:06:24;11.55;;;3.50;;
5555;SDS011;2801;50.972;7.856;2022-10-17T17:08:55;10.02;;;3.00;;
5555;SDS011;2801;50.972;7.856;2022-10-17T17:11:24;7.53;;;3.08;;
5555;SDS011;2801;50.972;7.856;2022-10-17T17:13:54;8.52;;;3.40;;
5555;SDS011;2801;50.972;7.856;2022-10-17T17:16:23;6.93;;;3.20;;
5555;SDS011;2801;50.972;7.856;2022-10-17T17:18:55;12.30;;;3.33;;
5555;SDS011;2801;50.972;7.856;2022-10-17T17:21:25;12.27;;;3.42;;
5555;SDS011;2801;50.972;7.856;2022-10-17T17:23:53;9.13;;;3.20;;
5555;SDS011;2801;50.972;7.856;2022-10-17T17:26:27;11.45;;;3.10;;
5555;SDS011;2801;50.972;7.856;2022-10-17T17:28:58;10.65;;;3.03;;
5555;SDS011;2801;50.972;7.856;2022-10-17T17:31:26;9.88;;;3.47;;
5555;SDS011;2801;50.972;7.856;2022-10-17T17:33:57;11.82;;;3.78;;
5555;SDS011;2801;50.972;7.856;2022-10-17T17:36:26;7.40;;;3.40;;
5555;SDS011;2801;50.972;7.856;2022-10-17T17:38:59;11.38;;;4.22;;
5555;SDS011;2801;50.972;7.856;2022-10-17T17:41:28;11.38;;;4.18;;
5555;SDS011;2801;50.972;7.856;2022-10-17T17:43:55;12.43;;;4.90;;
5555;SDS011;2801;50.972;7.856;2022-10-17T17:46:23;11.95;;;5.35;;